createdAt,value
2023-04-28T00:03:06.756Z,13.44
2023-04-28T00:13:06.623Z,13.30
2023-04-28T00:23:06.818Z,13.51
2023-04-28T00:33:09.089Z,13.55
2023-04-28T00:43:07.273Z,13.45
2023-04-28T00:53:07.580Z,13.44
2023-04-28T01:03:07.746Z,13.48
2023-04-28T01:13:07.835Z,13.57
2023-04-28T01:23:08.045Z,13.54
2023-04-28T01:33:08.326Z,13.60
2023-04-28T01:43:08.512Z,13.60
2023-04-28T01:53:08.776Z,13.49
2023-04-28T02:03:09.125Z,13.63
2023-04-28T02:13:09.253Z,13.64
2023-04-28T02:23:09.271Z,13.71
2023-04-28T02:33:09.554Z,13.81
2023-04-28T02:43:09.742Z,13.81
2023-04-28T02:53:09.995Z,13.71
2023-04-28T03:03:10.354Z,13.14
2023-04-28T03:13:10.559Z,12.64
2023-04-28T03:23:10.584Z,12.13
2023-04-28T03:33:10.940Z,11.98
2023-04-28T03:43:11.007Z,11.90
2023-04-28T03:53:11.307Z,11.64
2023-04-28T04:03:11.567Z,11.62
2023-04-28T04:13:11.471Z,11.72
2023-04-28T04:23:11.670Z,11.76
2023-04-28T04:33:15.041Z,11.83
2023-04-28T04:43:12.045Z,11.67
2023-04-28T04:53:15.488Z,11.58
2023-04-28T05:03:12.644Z,11.32
2023-04-28T05:13:12.927Z,11.21
2023-04-28T05:23:12.915Z,11.15
2023-04-28T05:33:13.173Z,11.09
2023-04-28T05:43:13.352Z,11.03
2023-04-28T05:53:13.645Z,11.10
2023-04-28T06:03:13.756Z,11.28
2023-04-28T06:13:14.734Z,11.07
2023-04-28T06:23:14.134Z,10.97
2023-04-28T06:33:14.297Z,10.82
2023-04-28T06:43:14.318Z,10.85
2023-04-28T06:53:14.543Z,10.85
2023-04-28T07:03:14.839Z,10.86
2023-04-28T07:13:14.924Z,10.81
2023-04-28T07:23:15.126Z,10.84
2023-04-28T07:33:15.446Z,10.85
2023-04-28T07:43:15.401Z,10.92
2023-04-28T07:53:15.664Z,10.96
2023-04-28T08:03:16.192Z,10.94
2023-04-28T08:13:17.138Z,10.97
2023-04-28T08:23:16.335Z,11.04
2023-04-28T08:33:16.635Z,11.18
2023-04-28T08:43:16.615Z,11.15
2023-04-28T08:53:19.923Z,11.21
2023-04-28T09:03:17.049Z,11.15
2023-04-28T09:13:17.134Z,11.10
2023-04-28T09:23:17.161Z,11.10
2023-04-28T09:33:17.427Z,11.15
2023-04-28T09:43:21.891Z,11.07
2023-04-28T09:53:17.866Z,11.24
2023-04-28T10:03:18.736Z,11.44
2023-04-28T10:13:18.076Z,11.47
2023-04-28T10:23:18.332Z,11.62
2023-04-28T10:33:18.537Z,11.65
2023-04-28T10:43:18.803Z,11.67
2023-04-28T10:53:19.005Z,11.65
2023-04-28T11:03:19.414Z,11.73
2023-04-28T11:13:19.458Z,11.76
2023-04-28T11:23:19.743Z,11.79
2023-04-28T11:33:19.922Z,11.82
2023-04-28T11:43:20.214Z,11.73
2023-04-28T11:53:21.657Z,11.67
2023-04-28T12:03:22.489Z,11.67
2023-04-28T12:13:20.517Z,11.75
2023-04-28T12:23:20.762Z,11.90
2023-04-28T12:33:20.805Z,12.04
2023-04-28T12:43:21.045Z,12.05
2023-04-28T12:53:21.266Z,12.13
2023-04-28T13:03:21.991Z,12.13
2023-04-28T13:13:21.692Z,12.09
2023-04-28T13:23:21.968Z,12.46
2023-04-28T13:33:21.960Z,12.34
2023-04-28T13:43:22.235Z,12.28
2023-04-28T13:53:22.222Z,12.50
